Time;durP1;ratioP1;P1;durP2;ratioP2;P2;SDS_P1;SDS_P2;PMS_P1;PMS_P2;Temp;Humidity;BMP_temperature;BMP_pressure;BME280_temperature;BME280_humidity;BME280_pressure;Samples;Min_cycle;Max_cycle;Signal;HPM_P1;HPM_P2
2023/07/15 00:01:47;;;;;;;6.07;4.05;;;;;16.80;96082.00;;;;8213845;28;20204;-66
2023/07/15 00:05:50;;;;;;;7.10;3.95;;;;;16.70;96080.00;;;;8202505;28;20215;-65
2023/07/15 00:09:54;;;;;;;4.82;4.07;;;;;16.80;96083.00;;;;8218677;28;20231;-66
2023/07/15 00:14:04;;;;;;;6.43;3.97;;;;;16.80;96086.00;;;;8209489;28;20235;-68
2023/07/15 00:18:12;;;;;;;6.32;4.15;;;;;16.70;96088.00;;;;8214279;28;20286;-66
2023/07/15 00:22:16;;;;;;;7.82;3.60;;;;;16.70;96088.00;;;;8217748;28;20242;-65
2023/07/15 00:26:21;;;;;;;4.68;3.53;;;;;16.70;96089.00;;;;8219453;28;20203;-67
2023/07/15 00:30:24;;;;;;;7.70;4.20;;;;;16.60;96081.00;;;;8190838;28;20232;-68
2023/07/15 00:34:29;;;;;;;4.30;3.90;;;;;16.60;96085.00;;;;8219095;28;20227;-66
2023/07/15 00:38:36;;;;;;;5.78;3.97;;;;;16.60;96083.00;;;;8209366;28;20696;-67
2023/07/15 00:42:43;;;;;;;9.10;3.53;;;;;16.60;96087.00;;;;8208230;28;20246;-66
2023/07/15 00:47:21;;;;;;;5.38;3.88;;;;;16.50;96090.00;;;;8201065;28;20203;-66
2023/07/15 00:51:26;;;;;;;4.90;4.10;;;;;16.40;96086.00;;;;8210055;28;20223;-66
2023/07/15 00:55:32;;;;;;;5.60;4.20;;;;;16.40;96084.00;;;;8210494;28;20252;-66
2023/07/15 00:59:38;;;;;;;6.45;4.00;;;;;16.40;96086.00;;;;8213884;28;20195;-67
2023/07/15 01:03:44;;;;;;;6.18;4.40;;;;;16.30;96096.00;;;;8215746;28;20864;-65
2023/07/15 01:07:55;;;;;;;6.00;4.05;;;;;16.30;96090.00;;;;8217455;28;20200;-67
2023/07/15 01:12:06;;;;;;;8.15;4.35;;;;;16.30;96089.00;;;;8213780;28;20258;-67
2023/07/15 01:16:10;;;;;;;8.13;4.13;;;;;16.30;96086.00;;;;8215347;28;20283;-68
2023/07/15 01:20:25;;;;;;;7.60;4.18;;;;;16.30;96084.00;;;;8219190;28;20227;-66
2023/07/15 01:24:30;;;;;;;5.40;3.85;;;;;16.30;96083.00;;;;8223200;28;20212;-66
2023/07/15 01:28:33;;;;;;;8.43;4.38;;;;;16.30;96079.00;;;;8222058;28;20316;-67
2023/07/15 01:32:36;;;;;;;6.18;4.40;;;;;16.20;96082.00;;;;8222921;28;20216;-67
2023/07/15 01:36:43;;;;;;;7.68;4.60;;;;;16.10;96079.00;;;;8223885;28;20222;-67
2023/07/15 01:40:47;;;;;;;6.57;4.38;;;;;16.10;96078.00;;;;8216370;28;20207;-67
2023/07/15 01:44:52;;;;;;;9.05;4.68;;;;;16.00;96076.00;;;;8220746;28;20204;-66
2023/07/15 01:48:59;;;;;;;5.07;4.55;;;;;16.00;96077.00;;;;8222217;28;20263;-66
2023/07/15 01:53:02;;;;;;;8.20;4.68;;;;;15.90;96083.00;;;;8218295;28;20242;-66
2023/07/15 01:57:07;;;;;;;4.13;3.72;;;;;15.90;96073.00;;;;8221572;28;20227;-66
2023/07/15 02:01:10;;;;;;;6.72;4.13;;;;;15.90;96064.00;;;;8221838;28;20231;-68
2023/07/15 02:05:14;;;;;;;7.97;4.45;;;;;16.00;96071.00;;;;8216363;28;20239;-67
2023/07/15 02:09:18;;;;;;;7.28;4.70;;;;;15.90;96075.00;;;;8222897;28;20234;-66
2023/07/15 02:13:26;;;;;;;9.55;4.25;;;;;15.80;96075.00;;;;8223172;28;20207;-66
2023/07/15 02:17:29;;;;;;;6.70;4.10;;;;;15.80;96075.00;;;;8214826;28;20732;-65
2023/07/15 02:21:32;;;;;;;10.20;4.47;;;;;15.80;96085.00;;;;8222401;28;20218;-66
2023/07/15 02:25:40;;;;;;;7.78;4.32;;;;;15.80;96079.00;;;;8226855;28;20258;-66
2023/07/15 02:29:48;;;;;;;7.55;4.75;;;;;15.80;96078.00;;;;8219107;28;20239;-65
2023/07/15 02:33:59;;;;;;;5.70;4.70;;;;;15.80;96077.00;;;;8217518;28;20204;-67
2023/07/15 02:38:03;;;;;;;9.07;4.80;;;;;15.80;96077.00;;;;8217529;28;20200;-66
2023/07/15 02:42:06;;;;;;;6.82;4.53;;;;;15.70;96075.00;;;;8223964;28;20291;-67
2023/07/15 02:46:11;;;;;;;9.77;4.90;;;;;15.80;96073.00;;;;8217094;28;20658;-68
2023/07/15 02:50:17;;;;;;;10.60;4.72;;;;;15.90;96071.00;;;;8219610;28;20277;-65
2023/07/15 02:54:20;;;;;;;6.90;4.22;;;;;15.80;96069.00;;;;8221803;28;20207;-66
2023/07/15 02:58:24;;;;;;;9.68;5.53;;;;;15.80;96070.00;;;;8221283;28;20295;-67
2023/07/15 03:02:31;;;;;;;7.70;4.40;;;;;15.70;96063.00;;;;8274514;23;20241;-65
2023/07/15 03:06:34;;;;;;;6.07;4.60;;;;;15.70;96064.00;;;;8273455;28;20207;-64
2023/07/15 03:10:42;;;;;;;11.73;4.00;;;;;15.70;96066.00;;;;8269691;28;20236;-67
2023/07/15 03:14:45;;;;;;;8.82;4.85;;;;;15.70;96076.00;;;;8281206;28;20205;-65
2023/07/15 03:18:49;;;;;;;10.98;4.35;;;;;15.70;96063.00;;;;8267340;28;20812;-67
2023/07/15 03:22:55;;;;;;;6.72;4.50;;;;;15.70;96069.00;;;;8277106;28;20281;-66
2023/07/15 03:26:59;;;;;;;11.15;4.90;;;;;15.70;96075.00;;;;8263822;28;20614;-66
2023/07/15 03:31:05;;;;;;;12.13;4.22;;;;;15.70;96072.00;;;;8269557;28;20230;-65
2023/07/15 03:35:10;;;;;;;9.25;4.57;;;;;15.70;96064.00;;;;8275321;28;20570;-65
2023/07/15 03:39:16;;;;;;;13.63;4.85;;;;;15.70;96066.00;;;;8272115;28;20210;-65
2023/07/15 03:43:20;;;;;;;8.75;4.88;;;;;15.70;96069.00;;;;8275517;28;20214;-65
2023/07/15 03:47:23;;;;;;;10.43;5.05;;;;;15.70;96074.00;;;;8286020;28;20799;-65
2023/07/15 03:51:30;;;;;;;5.90;5.00;;;;;15.70;96077.00;;;;8282401;28;20233;-64
2023/07/15 03:55:37;;;;;;;11.27;4.50;;;;;15.80;96081.00;;;;8264256;28;20214;-65
2023/07/15 03:59:40;;;;;;;12.77;5.25;;;;;15.80;96073.00;;;;8256580;28;20652;-66
2023/07/15 04:03:45;;;;;;;19.08;5.20;;;;;15.90;96076.00;;;;8259065;28;20333;-65
2023/07/15 04:07:50;;;;;;;12.43;4.70;;;;;16.10;96069.00;;;;8251623;28;20211;-66
2023/07/15 04:11:53;;;;;;;8.60;4.30;;;;;16.30;96064.00;;;;8253408;28;20269;-66
2023/07/15 04:15:59;;;;;;;10.20;4.30;;;;;16.50;96060.00;;;;8253472;28;20681;-66
2023/07/15 04:20:10;;;;;;;5.25;4.20;;;;;16.90;96065.00;;;;8250860;28;20195;-64
2023/07/15 04:24:18;;;;;;;9.80;4.20;;;;;17.20;96068.00;;;;8251370;28;20278;-65
2023/07/15 04:28:21;;;;;;;6.10;3.30;;;;;17.50;96064.00;;;;8249864;28;20226;-64
2023/07/15 04:32:24;;;;;;;8.48;3.38;;;;;17.80;96064.00;;;;8250280;28;20237;-66
2023/07/15 04:36:31;;;;;;;8.23;3.95;;;;;18.00;96071.00;;;;8251160;28;20819;-66
2023/07/15 04:40:35;;;;;;;10.95;4.30;;;;;18.20;96061.00;;;;8252572;28;20651;-66
2023/07/15 04:44:39;;;;;;;10.02;5.55;;;;;18.40;96073.00;;;;8244525;28;20238;-68
2023/07/15 04:48:43;;;;;;;4.88;4.47;;;;;18.80;96068.00;;;;8247804;28;20603;-66
2023/07/15 04:52:48;;;;;;;7.25;5.22;;;;;19.20;96078.00;;;;8246620;28;20226;-66
2023/07/15 04:56:54;;;;;;;11.55;4.68;;;;;19.70;96086.00;;;;8249744;28;20234;-66
2023/07/15 05:00:58;;;;;;;7.80;5.95;;;;;20.10;96084.00;;;;8253231;28;20206;-66
2023/07/15 05:05:06;;;;;;;8.15;4.47;;;;;20.40;96086.00;;;;8263674;28;20628;-67
2023/07/15 05:09:14;;;;;;;9.18;4.30;;;;;20.90;96088.00;;;;8246540;28;20278;-68
2023/07/15 05:13:19;;;;;;;7.20;4.60;;;;;21.30;96098.00;;;;8257617;28;20591;-68
2023/07/15 05:17:22;;;;;;;5.15;4.43;;;;;21.60;96101.00;;;;8256234;28;20203;-66
2023/07/15 05:21:25;;;;;;;8.23;3.95;;;;;21.90;96098.00;;;;8256281;28;20675;-66
2023/07/15 05:25:30;;;;;;;5.32;4.32;;;;;22.10;96101.00;;;;8254000;28;20218;-66
2023/07/15 05:29:34;;;;;;;8.60;4.60;;;;;22.30;96100.00;;;;8258521;28;20206;-68
2023/07/15 05:33:39;;;;;;;6.03;4.20;;;;;22.40;96110.00;;;;8249997;28;20727;-67
2023/07/15 05:37:42;;;;;;;4.97;4.47;;;;;22.50;96116.00;;;;8211679;28;20207;-68
2023/07/15 05:41:45;;;;;;;4.05;3.72;;;;;22.60;96120.00;;;;8230990;28;20213;-69
2023/07/15 05:45:50;;;;;;;5.80;3.92;;;;;22.70;96108.00;;;;8254111;28;20226;-66
2023/07/15 05:49:55;;;;;;;6.00;4.07;;;;;22.70;96114.00;;;;8259847;28;20283;-66
2023/07/15 05:53:58;;;;;;;9.00;3.90;;;;;22.90;96113.00;;;;8258460;28;20237;-65
2023/07/15 05:58:09;;;;;;;6.03;4.53;;;;;23.20;96119.00;;;;8244714;28;20206;-72
2023/07/15 06:02:14;;;;;;;4.20;3.80;;;;;23.60;96119.00;;;;8253230;28;20226;-66
2023/07/15 06:06:20;;;;;;;5.82;3.92;;;;;24.20;96122.00;;;;8247829;28;20206;-68
2023/07/15 06:10:26;;;;;;;5.75;3.70;;;;;24.80;96118.00;;;;8255687;28;20238;-68
2023/07/15 06:14:33;;;;;;;6.75;3.58;;;;;25.60;96124.00;;;;8248573;28;20238;-67
2023/07/15 06:18:38;;;;;;;8.73;3.60;;;;;26.50;96129.00;;;;8237373;28;20213;-69
2023/07/15 06:22:42;;;;;;;5.63;3.67;;;;;27.10;96127.00;;;;8234736;28;20203;-66
2023/07/15 06:26:45;;;;;;;5.38;3.30;;;;;27.40;96131.00;;;;8257162;28;20215;-69
2023/07/15 06:30:50;;;;;;;6.03;3.50;;;;;27.60;96122.00;;;;8261450;28;20253;-70
2023/07/15 06:34:56;;;;;;;5.80;3.05;;;;;28.20;96130.00;;;;8258901;28;20270;-68
2023/07/15 06:39:01;;;;;;;4.18;3.30;;;;;29.00;96120.00;;;;8253007;28;20302;-68
2023/07/15 06:43:07;;;;;;;4.13;3.42;;;;;29.70;96123.00;;;;8246398;28;20285;-71
2023/07/15 06:47:12;;;;;;;5.40;3.20;;;;;30.30;96124.00;;;;8246844;28;20214;-67
2023/07/15 06:51:21;;;;;;;5.20;3.47;;;;;30.70;96129.00;;;;8230389;28;21417;-66
2023/07/15 06:55:28;;;;;;;4.25;3.13;;;;;31.00;96132.00;;;;8254166;28;20203;-70
2023/07/15 06:59:35;;;;;;;3.22;2.92;;;;;31.20;96126.00;;;;8247673;28;20213;-70
2023/07/15 07:03:38;;;;;;;4.60;3.30;;;;;31.40;96117.00;;;;8255292;28;20314;-72
2023/07/15 07:07:43;;;;;;;3.95;3.22;;;;;31.60;96122.00;;;;8248982;28;20290;-70
2023/07/15 07:11:46;;;;;;;5.85;3.22;;;;;32.00;96112.00;;;;8250642;28;20642;-71
2023/07/15 07:15:51;;;;;;;5.38;2.92;;;;;32.40;96109.00;;;;8246597;28;20427;-72
2023/07/15 07:19:56;;;;;;;7.65;3.15;;;;;32.70;96104.00;;;;8244316;28;20218;-69
2023/07/15 07:24:03;;;;;;;3.20;3.00;;;;;33.00;96100.00;;;;8248443;28;20209;-69
2023/07/15 07:28:07;;;;;;;3.83;3.35;;;;;33.20;96108.00;;;;8248017;28;20241;-70
2023/07/15 07:32:13;;;;;;;3.35;3.15;;;;;33.40;96104.00;;;;8232360;28;20302;-72
2023/07/15 07:36:16;;;;;;;5.00;2.80;;;;;33.60;96104.00;;;;8249566;28;20289;-69
2023/07/15 07:40:22;;;;;;;5.07;3.22;;;;;34.10;96103.00;;;;8249742;28;20210;-70
2023/07/15 07:44:28;;;;;;;4.18;3.50;;;;;34.50;96103.00;;;;8249215;28;20817;-72
2023/07/15 07:48:32;;;;;;;3.38;2.90;;;;;34.70;96109.00;;;;8246519;28;20234;-71
2023/07/15 07:52:35;;;;;;;5.53;3.20;;;;;34.90;96107.00;;;;8247470;28;20674;-72
2023/07/15 07:56:39;;;;;;;4.00;2.85;;;;;34.90;96101.00;;;;8239834;28;20213;-70
2023/07/15 08:00:43;;;;;;;4.50;3.20;;;;;35.50;96108.00;;;;8245000;28;20235;-70
2023/07/15 08:04:48;;;;;;;5.88;2.90;;;;;35.60;96107.00;;;;8249075;28;20338;-70
2023/07/15 08:08:54;;;;;;;3.50;3.20;;;;;35.80;96106.00;;;;8256012;28;20297;-71
2023/07/15 08:13:05;;;;;;;4.38;3.00;;;;;36.10;96100.00;;;;8239153;28;20239;-71
2023/07/15 08:17:08;;;;;;;2.70;2.50;;;;;36.30;96107.00;;;;8243398;28;21118;-72
2023/07/15 08:21:12;;;;;;;3.10;2.88;;;;;36.50;96106.00;;;;8251460;28;20241;-72
2023/07/15 08:25:16;;;;;;;3.88;2.90;;;;;36.90;96105.00;;;;8218101;28;20211;-74
2023/07/15 08:29:20;;;;;;;5.25;3.17;;;;;37.00;96100.00;;;;8244470;28;20269;-71
2023/07/15 08:33:23;;;;;;;5.15;2.70;;;;;36.90;96103.00;;;;8253776;28;20238;-72
2023/07/15 08:37:27;;;;;;;2.80;2.60;;;;;37.30;96096.00;;;;8244575;28;20206;-72
2023/07/15 08:41:31;;;;;;;3.25;2.92;;;;;37.80;96096.00;;;;8242692;28;20254;-70
2023/07/15 08:45:41;;;;;;;2.72;2.45;;;;;38.10;96098.00;;;;8248088;28;20203;-75
2023/07/15 08:49:45;;;;;;;4.85;3.13;;;;;38.50;96102.00;;;;8254873;28;20779;-68
2023/07/15 08:53:48;;;;;;;3.53;3.20;;;;;38.70;96093.00;;;;8255889;28;20422;-74
2023/07/15 08:57:54;;;;;;;5.80;2.65;;;;;38.70;96089.00;;;;8255642;28;20211;-75
2023/07/15 09:02:01;;;;;;;3.10;2.80;;;;;39.20;96090.00;;;;8257192;28;20261;-74
2023/07/15 09:06:05;;;;;;;2.80;2.60;;;;;39.60;96097.00;;;;8229420;28;20239;-73
2023/07/15 09:10:13;;;;;;;2.88;2.55;;;;;39.50;96089.00;;;;8213052;28;20203;-75
2023/07/15 09:14:17;;;;;;;2.70;2.50;;;;;39.80;96090.00;;;;8218345;28;20242;-75
2023/07/15 09:18:26;;;;;;;3.30;2.58;;;;;40.10;96083.00;;;;8217406;28;20334;-71
2023/07/15 09:22:36;;;;;;;2.63;2.42;;;;;40.20;96081.00;;;;8222318;28;20207;-74
2023/07/15 09:26:41;;;;;;;6.70;2.88;;;;;40.50;96070.00;;;;8217945;28;20211;-74
2023/07/15 09:30:44;;;;;;;2.40;2.20;;;;;40.90;96073.00;;;;8217798;28;20704;-74
2023/07/15 09:34:53;;;;;;;3.83;2.70;;;;;40.90;96071.00;;;;8220122;28;20234;-73
2023/07/15 09:38:56;;;;;;;3.05;2.50;;;;;41.30;96077.00;;;;8222937;28;20265;-74
2023/07/15 09:42:59;;;;;;;3.00;2.40;;;;;41.60;96064.00;;;;8242062;28;20293;-74
2023/07/15 09:47:04;;;;;;;2.53;2.33;;;;;41.50;96065.00;;;;8241413;28;20285;-73
2023/07/15 09:51:12;;;;;;;2.25;1.73;;;;;41.40;96059.00;;;;8258518;28;20242;-74
2023/07/15 09:55:17;;;;;;;2.00;1.90;;;;;41.30;96062.00;;;;8257637;28;20326;-74
2023/07/15 09:59:27;;;;;;;2.00;1.77;;;;;41.70;96070.00;;;;8247789;28;20708;-74
2023/07/15 10:03:34;;;;;;;4.15;2.13;;;;;41.80;96053.00;;;;8253507;28;20230;-74
2023/07/15 10:07:40;;;;;;;2.17;2.00;;;;;42.30;96055.00;;;;8256511;28;20294;-74
2023/07/15 10:11:44;;;;;;;2.00;1.90;;;;;42.30;96052.00;;;;8251575;28;20206;-73
2023/07/15 10:15:47;;;;;;;3.22;1.90;;;;;41.80;96048.00;;;;8255822;28;20203;-73
2023/07/15 10:19:52;;;;;;;1.90;1.80;;;;;42.00;96053.00;;;;8254724;28;20399;-74
2023/07/15 10:24:10;;;;;;;3.40;1.70;;;;;42.60;96054.00;;;;8258017;28;20238;-74
2023/07/15 10:28:14;;;;;;;2.38;1.70;;;;;42.50;96048.00;;;;8249953;28;20331;-74
2023/07/15 10:32:19;;;;;;;2.55;1.95;;;;;42.60;96043.00;;;;8252242;28;20774;-74
2023/07/15 10:36:37;;;;;;;4.97;2.17;;;;;42.60;96040.00;;;;8252502;28;20206;-74
2023/07/15 10:40:51;;;;;;;3.00;1.73;;;;;42.50;96035.00;;;;8251424;28;20226;-73
2023/07/15 10:44:55;;;;;;;5.00;2.00;;;;;43.00;96030.00;;;;8254564;28;20207;-74
2023/07/15 10:49:01;;;;;;;2.47;2.13;;;;;43.20;96027.00;;;;8253964;28;20282;-74
2023/07/15 10:53:19;;;;;;;1.85;1.75;;;;;43.30;96022.00;;;;8262868;28;20230;-74
2023/07/15 10:57:25;;;;;;;3.65;1.88;;;;;43.40;96018.00;;;;8246808;28;20746;-74
2023/07/15 11:01:40;;;;;;;2.85;2.30;;;;;43.90;96017.00;;;;8255071;28;20241;-74
2023/07/15 11:05:43;;;;;;;2.10;2.00;;;;;43.80;96013.00;;;;8252088;28;20281;-74
2023/07/15 11:09:48;;;;;;;3.60;2.08;;;;;44.00;96012.00;;;;8251206;28;20293;-74
2023/07/15 11:13:52;;;;;;;2.00;1.90;;;;;43.80;96004.00;;;;8251231;28;20341;-74
2023/07/15 11:17:59;;;;;;;2.55;2.10;;;;;43.50;95997.00;;;;8254000;28;20199;-73
2023/07/15 11:22:12;;;;;;;2.05;1.95;;;;;43.50;95994.00;;;;8252341;28;20207;-74
2023/07/15 11:26:25;;;;;;;2.17;2.08;;;;;43.30;95985.00;;;;8257451;28;20208;-74
2023/07/15 11:30:35;;;;;;;3.40;2.15;;;;;43.00;95975.00;;;;8248910;28;20860;-74
2023/07/15 11:34:39;;;;;;;3.35;2.20;;;;;43.00;95984.00;;;;8251273;28;20233;-74
2023/07/15 11:38:42;;;;;;;2.53;1.90;;;;;43.20;95986.00;;;;8251241;28;20345;-73
2023/07/15 11:42:49;;;;;;;2.00;1.90;;;;;43.70;95981.00;;;;8256729;28;20281;-74
2023/07/15 11:46:56;;;;;;;2.22;1.80;;;;;44.30;95966.00;;;;8254752;28;20198;-73
2023/07/15 11:51:05;;;;;;;2.83;1.88;;;;;44.40;95972.00;;;;8247074;28;20215;-74
2023/07/15 11:55:10;;;;;;;2.00;1.90;;;;;44.20;95959.00;;;;8252592;28;20317;-74
2023/07/15 11:59:26;;;;;;;1.98;1.88;;;;;44.30;95958.00;;;;8232600;28;20191;-74
2023/07/15 12:03:31;;;;;;;3.15;2.08;;;;;44.60;95950.00;;;;8245353;28;20296;-74
2023/07/15 12:07:36;;;;;;;2.50;1.90;;;;;44.40;95942.00;;;;8251403;28;20206;-73
2023/07/15 12:11:40;;;;;;;1.63;1.52;;;;;44.30;95945.00;;;;8251252;28;20295;-74
2023/07/15 12:15:44;;;;;;;1.60;1.50;;;;;44.60;95938.00;;;;8239778;28;20254;-73
2023/07/15 12:19:54;;;;;;;1.52;1.52;;;;;44.90;95928.00;;;;8248827;28;20206;-74
2023/07/15 12:23:59;;;;;;;1.73;1.73;;;;;44.90;95934.00;;;;8239524;28;20202;-75
2023/07/15 12:28:03;;;;;;;2.03;1.77;;;;;45.10;95932.00;;;;8245509;28;20233;-72
2023/07/15 12:32:09;;;;;;;2.05;1.40;;;;;45.00;95918.00;;;;8250741;28;20326;-74
2023/07/15 12:36:15;;;;;;;1.60;1.55;;;;;45.30;95914.00;;;;8224305;28;20237;-74
2023/07/15 12:40:19;;;;;;;3.42;1.70;;;;;45.20;95910.00;;;;8244938;28;20558;-74
2023/07/15 12:44:26;;;;;;;2.75;1.77;;;;;44.50;95909.00;;;;8249532;28;20233;-74
2023/07/15 12:48:29;;;;;;;2.20;1.75;;;;;44.10;95898.00;;;;8259847;28;20668;-74
2023/07/15 12:52:34;;;;;;;1.85;1.75;;;;;43.00;95898.00;;;;8250476;28;20202;-74
2023/07/15 12:56:38;;;;;;;3.13;1.75;;;;;42.40;95890.00;;;;8250085;28;20235;-74
2023/07/15 13:00:41;;;;;;;1.85;1.65;;;;;41.80;95883.00;;;;8247877;28;20812;-74
2023/07/15 13:04:47;;;;;;;1.63;1.60;;;;;41.50;95885.00;;;;8239264;28;20591;-74
2023/07/15 13:08:58;;;;;;;1.85;1.75;;;;;41.40;95871.00;;;;8247795;28;20211;-74
2023/07/15 13:13:04;;;;;;;1.77;1.67;;;;;41.30;95878.00;;;;8213751;28;20217;-74
2023/07/15 13:17:07;;;;;;;1.70;1.60;;;;;41.10;95870.00;;;;8252130;28;20199;-74
2023/07/15 13:21:10;;;;;;;2.65;1.73;;;;;41.30;95863.00;;;;8255942;28;20198;-74
2023/07/15 13:25:15;;;;;;;2.03;1.80;;;;;41.90;95859.00;;;;8243315;28;20341;-74
2023/07/15 13:29:18;;;;;;;2.30;2.10;;;;;42.90;95843.00;;;;8266703;28;20244;-73
2023/07/15 13:33:21;;;;;;;1.65;1.40;;;;;43.70;95851.00;;;;8289584;28;20237;-73
2023/07/15 13:37:25;;;;;;;2.03;1.80;;;;;43.90;95865.00;;;;8279530;28;20216;-73
2023/07/15 13:41:29;;;;;;;2.10;2.00;;;;;44.20;95841.00;;;;8289059;28;20216;-74
2023/07/15 13:45:36;;;;;;;3.33;2.00;;;;;44.80;95835.00;;;;8287227;28;20217;-73
2023/07/15 13:49:39;;;;;;;2.15;1.50;;;;;45.30;95830.00;;;;8273712;28;20213;-73
2023/07/15 13:53:45;;;;;;;2.88;1.80;;;;;45.60;95830.00;;;;8286179;28;20230;-73
2023/07/15 13:57:49;;;;;;;2.20;2.10;;;;;45.50;95819.00;;;;8284908;28;20823;-73
2023/07/15 14:01:53;;;;;;;6.35;1.77;;;;;45.60;95824.00;;;;8289133;28;20783;-73
2023/07/15 14:05:56;;;;;;;2.00;1.90;;;;;45.70;95818.00;;;;8288002;28;20347;-74
2023/07/15 14:09:59;;;;;;;4.65;2.20;;;;;45.50;95815.00;;;;8274299;28;20248;-74
2023/07/15 14:14:14;;;;;;;3.65;2.13;;;;;44.90;95817.00;;;;8283020;28;20799;-73
2023/07/15 14:18:17;;;;;;;2.53;2.00;;;;;44.40;95818.00;;;;8292127;28;20205;-74
2023/07/15 14:22:22;;;;;;;4.18;2.33;;;;;43.90;95814.00;;;;8287430;28;20789;-74
2023/07/15 14:26:45;;;;;;;2.55;2.22;;;;;43.00;95812.00;;;;8279445;28;20205;-73
2023/07/15 14:30:52;;;;;;;2.00;1.73;;;;;42.20;95804.00;;;;8282566;28;20312;-73
2023/07/15 14:34:55;;;;;;;2.10;1.92;;;;;42.80;95808.00;;;;8289640;28;20234;-73
2023/07/15 14:39:01;;;;;;;4.63;1.80;;;;;43.20;95806.00;;;;8292911;28;20243;-72
2023/07/15 14:43:08;;;;;;;3.50;2.13;;;;;43.80;95793.00;;;;8277706;28;20937;-73
2023/07/15 14:47:13;;;;;;;2.47;1.92;;;;;43.90;95795.00;;;;8282843;28;20297;-73
2023/07/15 14:51:16;;;;;;;3.53;1.85;;;;;44.20;95789.00;;;;8285754;28;20301;-73
2023/07/15 14:55:23;;;;;;;2.20;2.10;;;;;44.10;95784.00;;;;8282678;28;20833;-73
2023/07/15 14:59:27;;;;;;;2.22;2.08;;;;;43.60;95780.00;;;;8282763;28;20673;-71
2023/07/15 15:03:32;;;;;;;1.75;1.65;;;;;43.10;95791.00;;;;8285928;28;20261;-73
2023/07/15 15:07:45;;;;;;;2.03;1.92;;;;;43.50;95788.00;;;;8281663;28;20688;-77
2023/07/15 15:11:49;;;;;;;3.53;1.98;;;;;43.80;95779.00;;;;8289195;28;20229;-72
2023/07/15 15:15:52;;;;;;;2.80;1.67;;;;;43.80;95775.00;;;;8286303;28;20229;-72
2023/07/15 15:19:57;;;;;;;2.00;1.90;;;;;44.20;95782.00;;;;8288534;28;20809;-72
2023/07/15 15:24:01;;;;;;;2.03;1.83;;;;;44.30;95775.00;;;;8294524;28;20321;-72
2023/07/15 15:28:06;;;;;;;1.90;1.80;;;;;44.30;95775.00;;;;8283092;28;20309;-72
2023/07/15 15:32:10;;;;;;;2.08;1.98;;;;;44.30;95767.00;;;;8285314;28;20644;-74
2023/07/15 15:36:20;;;;;;;2.47;1.80;;;;;43.80;95764.00;;;;8287056;28;20233;-73
2023/07/15 15:40:23;;;;;;;2.00;1.90;;;;;43.30;95771.00;;;;8287120;28;20232;-73
2023/07/15 15:44:26;;;;;;;3.03;2.10;;;;;43.10;95775.00;;;;8281635;28;20214;-71
2023/07/15 15:48:30;;;;;;;3.25;1.92;;;;;43.20;95770.00;;;;8278020;28;20877;-72
2023/07/15 15:52:34;;;;;;;2.22;2.13;;;;;43.50;95766.00;;;;8272343;28;20234;-72
2023/07/15 15:56:37;;;;;;;2.10;1.90;;;;;43.80;95771.00;;;;8283896;28;20241;-73
2023/07/15 16:00:43;;;;;;;4.20;2.00;;;;;43.80;95766.00;;;;8265024;28;20284;-72
2023/07/15 16:04:47;;;;;;;2.17;1.88;;;;;44.00;95760.00;;;;8268197;28;20233;-72
2023/07/15 16:08:53;;;;;;;2.72;2.13;;;;;44.10;95764.00;;;;8282475;28;20206;-72
2023/07/15 16:12:56;;;;;;;2.42;2.00;;;;;43.90;95763.00;;;;8272911;28;20285;-74
2023/07/15 16:17:03;;;;;;;2.47;1.73;;;;;43.90;95767.00;;;;8280541;28;20275;-71
2023/07/15 16:21:07;;;;;;;2.67;2.20;;;;;43.70;95757.00;;;;8277688;28;20233;-73
2023/07/15 16:25:13;;;;;;;3.08;1.80;;;;;43.00;95758.00;;;;8273870;28;20240;-74
2023/07/15 16:29:22;;;;;;;2.45;2.05;;;;;42.90;95752.00;;;;8281296;28;20409;-75
2023/07/15 16:33:25;;;;;;;2.53;1.73;;;;;43.20;95740.00;;;;8285784;28;20214;-72
2023/07/15 16:37:32;;;;;;;1.85;1.75;;;;;43.40;95741.00;;;;8281497;28;20303;-78
2023/07/15 16:41:36;;;;;;;2.95;1.85;;;;;43.30;95747.00;;;;8278592;28;20752;-74
2023/07/15 16:45:40;;;;;;;2.10;2.00;;;;;43.80;95743.00;;;;8276525;28;20285;-74
2023/07/15 16:49:45;;;;;;;1.92;1.83;;;;;43.80;95733.00;;;;8289296;28;20551;-72
2023/07/15 16:53:48;;;;;;;1.90;1.80;;;;;43.70;95735.00;;;;8274078;28;20245;-76
2023/07/15 16:57:55;;;;;;;2.20;1.73;;;;;43.80;95728.00;;;;8295891;28;20229;-73
2023/07/15 17:01:58;;;;;;;3.25;1.88;;;;;43.70;95726.00;;;;8291950;28;20237;-74
2023/07/15 17:06:01;;;;;;;3.88;1.95;;;;;43.80;95717.00;;;;8295092;28;20202;-73
2023/07/15 17:10:05;;;;;;;3.13;1.98;;;;;44.00;95717.00;;;;8291475;28;20296;-75
2023/07/15 17:14:10;;;;;;;2.85;2.00;;;;;44.20;95705.00;;;;8284779;28;20205;-74
2023/07/15 17:18:13;;;;;;;2.63;1.88;;;;;44.50;95704.00;;;;8283189;28;20505;-74
2023/07/15 17:22:18;;;;;;;1.63;1.55;;;;;44.50;95702.00;;;;8287417;28;20213;-73
2023/07/15 17:26:23;;;;;;;3.80;1.80;;;;;44.70;95696.00;;;;8291908;28;20205;-73
2023/07/15 17:30:29;;;;;;;2.03;1.92;;;;;44.60;95704.00;;;;8284938;28;20201;-71
2023/07/15 17:34:32;;;;;;;1.92;1.83;;;;;44.60;95696.00;;;;8280157;28;20210;-68
2023/07/15 17:38:35;;;;;;;3.15;1.67;;;;;44.60;95703.00;;;;8284909;28;20217;-69
2023/07/15 17:42:41;;;;;;;2.42;1.60;;;;;44.50;95695.00;;;;8286179;28;20289;-68
2023/07/15 17:46:46;;;;;;;11.85;2.10;;;;;43.70;95694.00;;;;8281933;28;20644;-69
2023/07/15 17:50:56;;;;;;;10.02;2.45;;;;;42.50;95704.00;;;;8286016;28;20204;-68
2023/07/15 17:55:00;;;;;;;2.55;1.73;;;;;41.50;95710.00;;;;8286042;28;20952;-67
2023/07/15 17:59:19;;;;;;;2.78;1.80;;;;;40.00;95717.00;;;;8295437;28;20551;-70
2023/07/15 18:03:26;;;;;;;2.78;1.85;;;;;38.40;95730.00;;;;8291272;28;20333;-72
2023/07/15 18:07:31;;;;;;;2.83;1.85;;;;;37.10;95735.00;;;;8282236;28;20659;-72
2023/07/15 18:11:34;;;;;;;2.03;1.83;;;;;36.00;95746.00;;;;8279324;28;20220;-72
2023/07/15 18:15:37;;;;;;;2.10;1.92;;;;;35.10;95757.00;;;;8286644;28;20313;-73
2023/07/15 18:19:45;;;;;;;2.25;2.05;;;;;34.70;95747.00;;;;8288829;28;20206;-72
2023/07/15 18:23:56;;;;;;;3.55;2.05;;;;;34.40;95750.00;;;;8287678;28;20549;-71
2023/07/15 18:28:03;;;;;;;4.82;2.38;;;;;34.20;95750.00;;;;8287987;28;20202;-73
2023/07/15 18:32:08;;;;;;;13.57;2.17;;;;;34.00;95744.00;;;;8290202;28;20202;-72
2023/07/15 18:36:14;;;;;;;1.80;1.65;;;;;33.90;95741.00;;;;8272815;28;20258;-72
2023/07/15 18:40:17;;;;;;;2.50;1.70;;;;;33.80;95738.00;;;;8291264;28;20234;-72
2023/07/15 18:44:23;;;;;;;1.92;1.83;;;;;33.80;95747.00;;;;8285728;28;20232;-72
2023/07/15 18:48:27;;;;;;;3.13;2.00;;;;;33.60;95752.00;;;;8291640;28;20229;-73
2023/07/15 18:52:33;;;;;;;1.70;1.70;;;;;33.50;95752.00;;;;8285690;28;20198;-73
2023/07/15 18:56:36;;;;;;;2.00;1.80;;;;;33.40;95753.00;;;;8268944;28;20320;-72
2023/07/15 19:00:41;;;;;;;3.03;2.15;;;;;33.30;95743.00;;;;8286706;28;20242;-71
2023/07/15 19:04:46;;;;;;;2.55;2.08;;;;;33.20;95745.00;;;;8285024;28;20239;-71
2023/07/15 19:08:50;;;;;;;1.98;1.88;;;;;32.90;95748.00;;;;8286945;28;20234;-73
2023/07/15 19:12:53;;;;;;;2.10;2.00;;;;;32.60;95758.00;;;;8284043;28;20207;-72
2023/07/15 19:16:56;;;;;;;9.18;1.98;;;;;32.40;95773.00;;;;8268016;28;20261;-72
2023/07/15 19:21:03;;;;;;;2.58;2.28;;;;;32.30;95776.00;;;;8286798;28;20206;-72
2023/07/15 19:25:09;;;;;;;6.35;2.20;;;;;32.20;95778.00;;;;8287567;28;20221;-74
2023/07/15 19:29:13;;;;;;;4.30;2.40;;;;;32.10;95786.00;;;;8286600;28;20202;-72
2023/07/15 19:33:21;;;;;;;8.02;2.63;;;;;31.80;95783.00;;;;8292937;28;20297;-71
2023/07/15 19:37:25;;;;;;;8.55;2.85;;;;;31.40;95788.00;;;;8284528;28;20265;-70
2023/07/15 19:41:29;;;;;;;6.53;2.65;;;;;31.20;95795.00;;;;8284736;28;20213;-74
2023/07/15 19:45:32;;;;;;;12.93;3.22;;;;;30.90;95796.00;;;;8285825;28;20242;-73
2023/07/15 19:49:39;;;;;;;6.90;2.70;;;;;30.70;95791.00;;;;8287718;28;20293;-69
2023/07/15 19:53:43;;;;;;;14.80;3.17;;;;;30.40;95794.00;;;;8280529;28;20912;-71
2023/07/15 19:57:49;;;;;;;3.10;2.80;;;;;30.10;95802.00;;;;8281722;28;20312;-69
2023/07/15 20:01:57;;;;;;;4.97;2.80;;;;;29.80;95793.00;;;;8286325;28;20289;-71
2023/07/15 20:06:00;;;;;;;7.30;3.13;;;;;29.60;95786.00;;;;8272546;28;20599;-70
2023/07/15 20:10:05;;;;;;;9.27;3.30;;;;;29.40;95775.00;;;;8282653;28;20596;-69
2023/07/15 20:14:12;;;;;;;4.38;2.85;;;;;29.10;95783.00;;;;8275027;28;20210;-66
2023/07/15 20:18:17;;;;;;;5.78;3.15;;;;;28.90;95776.00;;;;8285794;28;20670;-66
2023/07/15 20:22:20;;;;;;;4.90;3.10;;;;;28.80;95782.00;;;;8282690;28;20313;-65
2023/07/15 20:26:26;;;;;;;10.45;3.13;;;;;28.60;95774.00;;;;8291188;28;20217;-65